createdAt,value
2022-09-15T00:00:26.800Z,1007.76
2022-09-15T00:00:57.904Z,1007.77
2022-09-15T00:01:28.409Z,1007.76
2022-09-15T00:01:58.993Z,1007.77
2022-09-15T00:02:29.558Z,1007.74
2022-09-15T00:03:00.139Z,1007.73
2022-09-15T00:03:30.617Z,1007.73
2022-09-15T00:04:01.798Z,1007.72
2022-09-15T00:04:32.280Z,1007.70
2022-09-15T00:05:03.202Z,1007.71
2022-09-15T00:05:34.173Z,1007.68
2022-09-15T00:06:05.085Z,1007.66
2022-09-15T00:06:36.009Z,1007.66
2022-09-15T00:07:07.108Z,1007.65
2022-09-15T00:07:37.603Z,1007.62
2022-09-15T00:08:08.519Z,1007.60
2022-09-15T00:08:39.435Z,1007.59
2022-09-15T00:09:10.498Z,1007.58
2022-09-15T00:09:40.917Z,1007.55
2022-09-15T00:10:12.032Z,1007.56
2022-09-15T00:10:42.522Z,1007.58
2022-09-15T00:11:13.435Z,1007.57
2022-09-15T00:11:44.360Z,1007.57
2022-09-15T00:12:15.371Z,1007.55
2022-09-15T00:12:46.285Z,1007.53
2022-09-15T00:13:17.405Z,1007.56
2022-09-15T00:13:47.919Z,1007.54
2022-09-15T00:14:18.908Z,1007.54
2022-09-15T00:14:49.904Z,1007.53
2022-09-15T00:15:20.886Z,1007.50
2022-09-15T00:15:51.841Z,1007.51
2022-09-15T00:16:23.055Z,1007.51
2022-09-15T00:16:53.632Z,1007.51
2022-09-15T00:17:24.075Z,1007.50
2022-09-15T00:17:54.983Z,1007.47
2022-09-15T00:18:25.907Z,1007.46
2022-09-15T00:18:56.879Z,1007.46
2022-09-15T00:19:27.998Z,1007.46
2022-09-15T00:19:58.484Z,1007.45
2022-09-15T00:20:29.395Z,1007.46
2022-09-15T00:21:00.415Z,1007.45
2022-09-15T00:21:30.902Z,1007.44
2022-09-15T00:22:01.874Z,1007.43
2022-09-15T00:22:33.050Z,1007.43
2022-09-15T00:23:03.538Z,1007.43
2022-09-15T00:23:34.461Z,1007.42
2022-09-15T00:24:05.383Z,1007.45
2022-09-15T00:24:36.323Z,1007.44
2022-09-15T00:25:07.316Z,1007.45
2022-09-15T00:25:38.508Z,1007.45
2022-09-15T00:26:08.996Z,1007.47
2022-09-15T00:26:39.909Z,1007.45
2022-09-15T00:27:10.901Z,1007.43
2022-09-15T00:27:41.885Z,1007.45
2022-09-15T00:28:12.845Z,1007.43
2022-09-15T00:28:44.079Z,1007.42
2022-09-15T00:29:14.624Z,1007.40
2022-09-15T00:29:45.594Z,1007.39
2022-09-15T00:30:16.571Z,1007.38
2022-09-15T00:30:47.631Z,1007.36
2022-09-15T00:31:18.225Z,1007.35
2022-09-15T00:31:48.941Z,1007.33
2022-09-15T00:32:19.433Z,1007.33
2022-09-15T00:32:49.960Z,1007.33
2022-09-15T00:33:20.391Z,1007.35
2022-09-15T00:33:51.499Z,1007.35
2022-09-15T00:34:22.012Z,1007.36
2022-09-15T00:34:53.186Z,1007.34
2022-09-15T00:35:23.700Z,1007.37
2022-09-15T00:35:54.115Z,1007.36
2022-09-15T00:36:25.087Z,1007.36
2022-09-15T00:36:56.009Z,1007.36
2022-09-15T00:37:26.939Z,1007.36
2022-09-15T00:37:58.016Z,1007.36
2022-09-15T00:38:28.494Z,1007.38
2022-09-15T00:38:59.481Z,1007.37
2022-09-15T00:39:30.038Z,1007.33
2022-09-15T00:40:00.705Z,1007.32
2022-09-15T00:40:31.430Z,1007.32
2022-09-15T00:41:02.082Z,1007.33
2022-09-15T00:41:32.613Z,1007.35
2022-09-15T00:42:03.027Z,1007.34
2022-09-15T00:42:33.951Z,1007.37
2022-09-15T00:43:04.935Z,1007.36
2022-09-15T00:43:35.845Z,1007.40
2022-09-15T00:44:06.951Z,1007.39
2022-09-15T00:44:37.445Z,1007.40
2022-09-15T00:45:08.404Z,1007.41
2022-09-15T00:45:39.461Z,1007.43
2022-09-15T00:46:10.096Z,1007.42
2022-09-15T00:46:40.589Z,1007.40
2022-09-15T00:47:19.985Z,1007.43
2022-09-15T00:47:43.153Z,1007.42
2022-09-15T00:48:12.566Z,1007.44
2022-09-15T00:48:43.483Z,1007.47
2022-09-15T00:49:14.400Z,1007.45
2022-09-15T00:49:45.510Z,1007.43
2022-09-15T00:50:15.987Z,1007.45
2022-09-15T00:50:46.914Z,1007.48
2022-09-15T00:51:17.839Z,1007.45
2022-09-15T00:51:48.811Z,1007.46
2022-09-15T00:52:19.730Z,1007.50
2022-09-15T00:52:50.924Z,1007.48
2022-09-15T00:53:21.427Z,1007.49
2022-09-15T00:53:52.377Z,1007.51
2022-09-15T00:54:23.299Z,1007.52
2022-09-15T00:54:54.216Z,1007.51
2022-09-15T00:55:25.145Z,1007.54
2022-09-15T00:55:56.258Z,1007.50
2022-09-15T00:56:26.736Z,1007.47
2022-09-15T00:56:57.698Z,1007.51
2022-09-15T00:57:28.674Z,1007.48
2022-09-15T00:57:59.667Z,1007.48
2022-09-15T00:58:30.591Z,1007.47
2022-09-15T00:59:01.701Z,1007.46
2022-09-15T00:59:32.215Z,1007.44
2022-09-15T01:00:03.210Z,1007.43
2022-09-15T01:00:34.133Z,1007.45
2022-09-15T01:01:05.167Z,1007.45
2022-09-15T01:01:35.889Z,1007.43
2022-09-15T01:02:06.629Z,1007.43
2022-09-15T01:02:37.183Z,1007.45
2022-09-15T01:03:07.629Z,1007.43
2022-09-15T01:03:38.547Z,1007.41
2022-09-15T01:04:09.535Z,1007.42
2022-09-15T01:04:40.457Z,1007.44
2022-09-15T01:05:11.652Z,1007.40
2022-09-15T01:05:42.139Z,1007.39
2022-09-15T01:06:13.054Z,1007.39
2022-09-15T01:06:43.969Z,1007.38
2022-09-15T01:07:14.919Z,1007.38
2022-09-15T01:07:45.840Z,1007.38
2022-09-15T01:08:16.955Z,1007.36
2022-09-15T01:08:47.440Z,1007.38
2022-09-15T01:09:18.347Z,1007.40
2022-09-15T01:09:49.333Z,1007.43
2022-09-15T01:10:20.239Z,1007.43
2022-09-15T01:10:51.258Z,1007.42
2022-09-15T01:11:21.876Z,1007.43
2022-09-15T01:11:52.381Z,1007.44
2022-09-15T01:12:23.335Z,1007.45
2022-09-15T01:12:54.324Z,1007.48
2022-09-15T01:13:25.248Z,1007.47
2022-09-15T01:13:56.240Z,1007.47
2022-09-15T01:14:27.362Z,1007.50
2022-09-15T01:14:57.851Z,1007.49
2022-09-15T01:15:28.773Z,1007.51
2022-09-15T01:15:59.689Z,1007.50
2022-09-15T01:16:30.763Z,1007.49
2022-09-15T01:17:01.279Z,1007.55
2022-09-15T01:17:32.447Z,1007.55
2022-09-15T01:18:02.872Z,1007.56
2022-09-15T01:18:33.855Z,1007.53
2022-09-15T01:19:04.782Z,1007.54
2022-09-15T01:19:35.713Z,1007.55
2022-09-15T01:20:06.705Z,1007.51
2022-09-15T01:20:37.808Z,1007.50
2022-09-15T01:21:08.300Z,1007.50
2022-09-15T01:21:39.763Z,1007.51
2022-09-15T01:22:10.183Z,1007.48
2022-09-15T01:22:41.203Z,1007.48
2022-09-15T01:23:11.609Z,1007.50
2022-09-15T01:23:42.789Z,1007.49
2022-09-15T01:24:13.273Z,1007.48
2022-09-15T01:24:44.185Z,1007.50
2022-09-15T01:25:15.184Z,1007.50
2022-09-15T01:25:46.105Z,1007.48
2022-09-15T01:26:17.057Z,1007.48
2022-09-15T01:26:48.166Z,1007.48
2022-09-15T01:27:41.154Z,1007.48
2022-09-15T01:27:50.595Z,1007.49
2022-09-15T01:28:20.546Z,1007.47
2022-09-15T01:28:51.538Z,1007.47
2022-09-15T01:29:22.660Z,1007.47
2022-09-15T01:29:53.165Z,1007.45
2022-09-15T01:30:24.080Z,1007.45
2022-09-15T01:30:55.067Z,1007.43
2022-09-15T01:31:26.119Z,1007.41
2022-09-15T01:31:56.569Z,1007.40
2022-09-15T01:32:27.693Z,1007.38
2022-09-15T01:32:58.161Z,1007.36
2022-09-15T01:33:29.157Z,1007.37
2022-09-15T01:34:00.134Z,1007.37
2022-09-15T01:34:31.056Z,1007.33
2022-09-15T01:35:02.044Z,1007.32
2022-09-15T01:35:33.154Z,1007.34
2022-09-15T01:36:03.656Z,1007.33
2022-09-15T01:36:34.631Z,1007.32
2022-09-15T01:37:05.554Z,1007.33
2022-09-15T01:37:36.060Z,1007.31
2022-09-15T01:38:07.014Z,1007.31
2022-09-15T01:38:38.120Z,1007.31
2022-09-15T01:39:08.606Z,1007.33
2022-09-15T01:39:39.520Z,1007.35
2022-09-15T01:40:10.456Z,1007.32
2022-09-15T01:40:41.434Z,1007.31
2022-09-15T01:41:12.392Z,1007.33
2022-09-15T01:41:43.589Z,1007.33
2022-09-15T01:42:14.080Z,1007.35
2022-09-15T01:42:44.990Z,1007.34
2022-09-15T01:43:15.942Z,1007.37
2022-09-15T01:43:46.856Z,1007.37
2022-09-15T01:44:17.775Z,1007.34
2022-09-15T01:44:48.961Z,1007.35
2022-09-15T01:45:19.432Z,1007.35
2022-09-15T01:45:50.467Z,1007.35
2022-09-15T01:46:20.930Z,1007.34
2022-09-15T01:46:51.899Z,1007.34
2022-09-15T01:47:22.805Z,1007.28
2022-09-15T01:47:53.909Z,1007.30
2022-09-15T01:48:24.395Z,1007.28
2022-09-15T01:48:55.315Z,1007.25
2022-09-15T01:49:26.245Z,1007.24
2022-09-15T01:49:57.152Z,1007.24
2022-09-15T01:50:28.145Z,1007.25
2022-09-15T01:50:59.264Z,1007.25
2022-09-15T01:51:29.745Z,1007.25
2022-09-15T01:52:00.661Z,1007.25
2022-09-15T01:52:31.585Z,1007.24
2022-09-15T01:53:02.562Z,1007.22
2022-09-15T01:53:33.534Z,1007.20
2022-09-15T01:54:04.645Z,1007.21
2022-09-15T01:54:35.129Z,1007.18
2022-09-15T01:55:06.048Z,1007.18
2022-09-15T01:55:36.967Z,1007.20
2022-09-15T01:56:07.880Z,1007.20
2022-09-15T01:56:38.795Z,1007.22
2022-09-15T01:57:09.929Z,1007.20
2022-09-15T01:57:40.416Z,1007.19
2022-09-15T01:58:11.330Z,1007.21
2022-09-15T01:58:42.295Z,1007.21
2022-09-15T01:59:13.210Z,1007.19
2022-09-15T01:59:44.209Z,1007.22
2022-09-15T02:00:15.395Z,1007.21
2022-09-15T02:00:45.899Z,1007.25
2022-09-15T02:01:16.418Z,1007.25
2022-09-15T02:01:46.918Z,1007.21
2022-09-15T02:02:17.410Z,1007.25
2022-09-15T02:02:48.393Z,1007.26
2022-09-15T02:03:19.576Z,1007.25
2022-09-15T02:03:50.063Z,1007.26
2022-09-15T02:04:21.038Z,1007.26
2022-09-15T02:04:51.956Z,1007.27
2022-09-15T02:05:22.859Z,1007.28
2022-09-15T02:05:53.846Z,1007.28
2022-09-15T02:06:24.946Z,1007.27
2022-09-15T02:06:55.428Z,1007.27
2022-09-15T02:07:26.421Z,1007.26
2022-09-15T02:07:57.417Z,1007.25
2022-09-15T02:08:27.913Z,1007.27
2022-09-15T02:08:58.873Z,1007.29
2022-09-15T02:09:30.050Z,1007.31
2022-09-15T02:10:00.532Z,1007.32
2022-09-15T02:10:31.438Z,1007.32
2022-09-15T02:11:02.351Z,1007.33
2022-09-15T02:11:33.337Z,1007.30
2022-09-15T02:12:04.229Z,1007.31
2022-09-15T02:12:35.361Z,1007.31
2022-09-15T02:13:05.849Z,1007.30
2022-09-15T02:13:36.835Z,1007.30
2022-09-15T02:14:07.803Z,1007.30
2022-09-15T02:14:38.745Z,1007.30
2022-09-15T02:15:09.719Z,1007.32
2022-09-15T02:15:40.361Z,1007.31
2022-09-15T02:16:10.892Z,1007.30
2022-09-15T02:16:41.403Z,1007.30
2022-09-15T02:17:11.867Z,1007.30
2022-09-15T02:17:42.786Z,1007.30
2022-09-15T02:18:13.776Z,1007.33
2022-09-15T02:18:44.958Z,1007.36
2022-09-15T02:19:15.469Z,1007.37
2022-09-15T02:19:45.892Z,1007.37
2022-09-15T02:20:16.888Z,1007.37
2022-09-15T02:20:47.875Z,1007.39
2022-09-15T02:21:18.800Z,1007.40
2022-09-15T02:21:49.915Z,1007.40
2022-09-15T02:22:20.404Z,1007.39
2022-09-15T02:22:51.320Z,1007.38
2022-09-15T02:23:22.235Z,1007.40
2022-09-15T02:23:53.249Z,1007.40
2022-09-15T02:24:23.667Z,1007.39
2022-09-15T02:24:54.771Z,1007.38
2022-09-15T02:25:25.255Z,1007.36
2022-09-15T02:25:56.180Z,1007.34
2022-09-15T02:26:27.088Z,1007.33
2022-09-15T02:26:57.998Z,1007.32
2022-09-15T02:27:28.916Z,1007.35
2022-09-15T02:28:00.058Z,1007.34
2022-09-15T02:28:30.549Z,1007.33
2022-09-15T02:29:01.511Z,1007.31
2022-09-15T02:29:32.420Z,1007.31
2022-09-15T02:30:03.346Z,1007.29
2022-09-15T02:30:34.297Z,1007.30
2022-09-15T02:31:05.540Z,1007.30
2022-09-15T02:31:36.153Z,1007.29
2022-09-15T02:32:07.518Z,1007.28
2022-09-15T02:32:37.393Z,1007.27
2022-09-15T02:33:08.369Z,1007.26
2022-09-15T02:33:39.355Z,1007.25
2022-09-15T02:34:10.523Z,1007.26
2022-09-15T02:34:40.948Z,1007.26
2022-09-15T02:35:11.940Z,1007.26
2022-09-15T02:35:42.850Z,1007.25
2022-09-15T02:36:13.750Z,1007.24
2022-09-15T02:36:44.737Z,1007.25
2022-09-15T02:37:15.845Z,1007.27
2022-09-15T02:37:46.313Z,1007.25
2022-09-15T02:38:17.228Z,1007.24
2022-09-15T02:38:48.146Z,1007.26
2022-09-15T02:39:19.089Z,1007.25
2022-09-15T02:39:50.130Z,1007.26
2022-09-15T02:40:20.891Z,1007.26
2022-09-15T02:40:51.381Z,1007.26
2022-09-15T02:41:22.287Z,1007.25
2022-09-15T02:41:53.212Z,1007.24
2022-09-15T02:42:24.128Z,1007.25
2022-09-15T02:42:55.052Z,1007.24
2022-09-15T02:43:26.205Z,1007.25
2022-09-15T02:43:56.688Z,1007.25
2022-09-15T02:44:27.646Z,1007.23
2022-09-15T02:44:58.588Z,1007.26
2022-09-15T02:45:29.563Z,1007.24
2022-09-15T02:46:00.048Z,1007.24
2022-09-15T02:46:30.791Z,1007.24
2022-09-15T02:47:01.293Z,1007.20
2022-09-15T02:47:32.210Z,1007.19
2022-09-15T02:48:03.124Z,1007.19
2022-09-15T02:48:34.124Z,1007.22
2022-09-15T02:49:05.031Z,1007.20
2022-09-15T02:49:36.179Z,1007.22
2022-09-15T02:50:06.663Z,1007.23
2022-09-15T02:50:37.650Z,1007.21
2022-09-15T02:51:08.559Z,1007.21
2022-09-15T02:51:39.473Z,1007.24
2022-09-15T02:52:10.453Z,1007.23
2022-09-15T02:52:41.607Z,1007.22
2022-09-15T02:53:12.135Z,1007.20
2022-09-15T02:53:43.055Z,1007.22
2022-09-15T02:54:13.971Z,1007.20
2022-09-15T02:54:44.932Z,1007.21
2022-09-15T02:55:15.928Z,1007.19
2022-09-15T02:55:47.105Z,1007.18
2022-09-15T02:56:17.583Z,1007.19
2022-09-15T02:56:48.491Z,1007.20
2022-09-15T02:57:19.409Z,1007.18
2022-09-15T02:57:50.358Z,1007.19
2022-09-15T02:58:21.333Z,1007.16
2022-09-15T02:58:52.615Z,1007.18
2022-09-15T02:59:23.151Z,1007.16
2022-09-15T02:59:54.124Z,1007.15
2022-09-15T03:00:25.109Z,1007.17
2022-09-15T03:00:56.074Z,1007.17
2022-09-15T03:01:26.617Z,1007.16
2022-09-15T03:01:57.611Z,1007.16
2022-09-15T03:02:28.206Z,1007.16
2022-09-15T03:02:58.757Z,1007.15
2022-09-15T03:03:29.685Z,1007.15
2022-09-15T03:04:00.683Z,1007.15
2022-09-15T03:04:31.591Z,1007.16
2022-09-15T03:05:02.744Z,1007.15
2022-09-15T03:05:33.165Z,1007.13
2022-09-15T03:06:04.160Z,1007.13
2022-09-15T03:06:35.134Z,1007.16
2022-09-15T03:07:06.070Z,1007.16
2022-09-15T03:07:36.985Z,1007.19
2022-09-15T03:08:08.097Z,1007.17
2022-09-15T03:08:38.588Z,1007.20
2022-09-15T03:09:09.038Z,1007.20
2022-09-15T03:09:39.959Z,1007.19
2022-09-15T03:10:10.924Z,1007.21
2022-09-15T03:10:41.831Z,1007.18
2022-09-15T03:11:12.920Z,1007.18
2022-09-15T03:11:43.411Z,1007.19
2022-09-15T03:12:14.395Z,1007.21
2022-09-15T03:12:45.311Z,1007.19
2022-09-15T03:13:16.252Z,1007.22
2022-09-15T03:13:47.186Z,1007.22
2022-09-15T03:14:18.312Z,1007.23
2022-09-15T03:14:48.813Z,1007.25
2022-09-15T03:15:19.297Z,1007.25
2022-09-15T03:15:50.274Z,1007.25
2022-09-15T03:16:21.337Z,1007.26
2022-09-15T03:16:52.075Z,1007.27
2022-09-15T03:17:23.255Z,1007.27
2022-09-15T03:17:53.742Z,1007.26
2022-09-15T03:18:24.711Z,1007.27
2022-09-15T03:18:55.637Z,1007.25
2022-09-15T03:19:26.634Z,1007.26
2022-09-15T03:19:57.128Z,1007.27
2022-09-15T03:20:28.288Z,1007.27
2022-09-15T03:20:58.787Z,1007.25
2022-09-15T03:21:29.666Z,1007.22
2022-09-15T03:22:00.638Z,1007.25
2022-09-15T03:22:31.639Z,1007.24
2022-09-15T03:23:02.553Z,1007.26
2022-09-15T03:23:33.690Z,1007.24
2022-09-15T03:24:04.189Z,1007.24
2022-09-15T03:24:34.609Z,1007.27
2022-09-15T03:25:05.608Z,1007.27
2022-09-15T03:25:36.145Z,1007.29
2022-09-15T03:26:06.630Z,1007.32
2022-09-15T03:26:37.705Z,1007.30
2022-09-15T03:27:08.203Z,1007.32
2022-09-15T03:27:38.681Z,1007.30
2022-09-15T03:28:09.154Z,1007.33
2022-09-15T03:28:40.087Z,1007.34
2022-09-15T03:29:11.072Z,1007.32
2022-09-15T03:29:42.283Z,1007.35
2022-09-15T03:30:12.771Z,1007.35
2022-09-15T03:30:43.725Z,1007.31
2022-09-15T03:31:14.700Z,1007.33
2022-09-15T03:31:45.201Z,1007.34
2022-09-15T03:32:15.652Z,1007.34
2022-09-15T03:32:46.834Z,1007.31
2022-09-15T03:33:17.316Z,1007.32
2022-09-15T03:33:48.339Z,1007.29
2022-09-15T03:34:18.765Z,1007.29
2022-09-15T03:34:49.680Z,1007.30
2022-09-15T03:35:20.606Z,1007.29
2022-09-15T03:35:51.763Z,1007.27
2022-09-15T03:36:22.155Z,1007.29
2022-09-15T03:36:53.151Z,1007.26
2022-09-15T03:37:24.138Z,1007.28
2022-09-15T03:37:55.055Z,1007.26
2022-09-15T03:38:25.981Z,1007.25
2022-09-15T03:38:57.092Z,1007.28
2022-09-15T03:39:27.587Z,1007.24
2022-09-15T03:39:58.652Z,1007.22
2022-09-15T03:40:29.253Z,1007.23
2022-09-15T03:40:59.732Z,1007.21
2022-09-15T03:41:30.628Z,1007.22
2022-09-15T03:42:01.741Z,1007.20
2022-09-15T03:42:32.224Z,1007.20
2022-09-15T03:43:03.118Z,1007.19
2022-09-15T03:43:34.108Z,1007.21
2022-09-15T03:44:05.024Z,1007.15
2022-09-15T03:44:36.002Z,1007.19
2022-09-15T03:45:07.157Z,1007.17
2022-09-15T03:45:37.749Z,1007.19
2022-09-15T03:46:08.387Z,1007.15
2022-09-15T03:46:39.127Z,1007.18
2022-09-15T03:47:10.057Z,1007.16
2022-09-15T03:47:41.060Z,1007.18
2022-09-15T03:48:12.172Z,1007.18
2022-09-15T03:48:42.625Z,1007.13
2022-09-15T03:49:13.598Z,1007.12
2022-09-15T03:49:44.524Z,1007.11
2022-09-15T03:50:15.433Z,1007.10
2022-09-15T03:50:46.356Z,1007.07
2022-09-15T03:51:17.520Z,1007.10
2022-09-15T03:51:47.910Z,1007.09
2022-09-15T03:52:18.797Z,1007.07
2022-09-15T03:52:49.710Z,1007.10
2022-09-15T03:53:20.638Z,1007.08
2022-09-15T03:53:51.674Z,1007.12
2022-09-15T03:54:22.574Z,1007.09
2022-09-15T03:54:53.063Z,1007.14
2022-09-15T03:55:24.043Z,1007.14
2022-09-15T03:55:54.962Z,1007.14
2022-09-15T03:56:25.944Z,1007.13
2022-09-15T03:56:56.860Z,1007.14
2022-09-15T03:57:28.041Z,1007.15
2022-09-15T03:57:58.528Z,1007.15
2022-09-15T03:58:30.915Z,1007.17
2022-09-15T03:59:00.175Z,1007.17
2022-09-15T03:59:31.087Z,1007.19
2022-09-15T04:00:02.007Z,1007.18
2022-09-15T04:00:33.259Z,1007.15
2022-09-15T04:01:03.930Z,1007.16
2022-09-15T04:01:34.419Z,1007.18
2022-09-15T04:02:04.994Z,1007.20
2022-09-15T04:02:35.464Z,1007.18
2022-09-15T04:03:06.464Z,1007.16
2022-09-15T04:03:44.093Z,1007.16
2022-09-15T04:04:09.006Z,1007.16
2022-09-15T04:04:38.480Z,1007.18
2022-09-15T04:05:09.467Z,1007.19
2022-09-15T04:05:40.375Z,1007.15
2022-09-15T04:06:11.561Z,1007.13
2022-09-15T04:06:42.026Z,1007.13
2022-09-15T04:07:12.946Z,1007.11
2022-09-15T04:07:43.848Z,1007.13
2022-09-15T04:08:14.834Z,1007.15
2022-09-15T04:08:45.754Z,1007.16
2022-09-15T04:09:16.925Z,1007.13
2022-09-15T04:09:47.415Z,1007.13
2022-09-15T04:10:18.303Z,1007.11
2022-09-15T04:10:49.291Z,1007.11
2022-09-15T04:11:19.765Z,1007.12
2022-09-15T04:11:50.740Z,1007.09
2022-09-15T04:12:21.922Z,1007.10
2022-09-15T04:12:52.414Z,1007.11
2022-09-15T04:13:27.932Z,1007.10
2022-09-15T04:13:54.315Z,1007.09
2022-09-15T04:14:24.822Z,1007.09
2022-09-15T04:14:56.006Z,1007.09
2022-09-15T04:15:26.469Z,1007.11
2022-09-15T04:15:57.450Z,1007.10
2022-09-15T04:16:28.013Z,1007.07
2022-09-15T04:16:58.515Z,1007.06
2022-09-15T04:17:29.426Z,1007.05
2022-09-15T04:18:00.584Z,1007.08
2022-09-15T04:18:31.070Z,1007.08
2022-09-15T04:19:01.987Z,1007.04
2022-09-15T04:19:32.983Z,1007.07
2022-09-15T04:20:03.916Z,1007.06
2022-09-15T04:20:34.902Z,1007.04
2022-09-15T04:21:06.005Z,1007.04
2022-09-15T04:21:36.489Z,1007.01
2022-09-15T04:22:07.445Z,1007.02
2022-09-15T04:22:38.356Z,1007.00
2022-09-15T04:23:09.276Z,1006.99
2022-09-15T04:23:40.189Z,1007.00
2022-09-15T04:24:11.374Z,1006.96
2022-09-15T04:24:41.856Z,1006.96
2022-09-15T04:25:12.773Z,1006.96
2022-09-15T04:25:43.712Z,1006.97
2022-09-15T04:26:14.627Z,1006.96
2022-09-15T04:26:45.625Z,1006.97
2022-09-15T04:27:16.784Z,1006.95
2022-09-15T04:27:47.271Z,1006.97
2022-09-15T04:28:18.186Z,1006.99
2022-09-15T04:28:49.101Z,1006.99
2022-09-15T04:29:20.016Z,1007.00
2022-09-15T04:29:51.026Z,1007.04
2022-09-15T04:30:22.139Z,1007.03
2022-09-15T04:30:52.649Z,1007.07
2022-09-15T04:31:23.816Z,1007.04
2022-09-15T04:31:54.602Z,1007.05
2022-09-15T04:32:25.125Z,1007.03
2022-09-15T04:32:56.046Z,1007.06
2022-09-15T04:33:27.147Z,1007.04
2022-09-15T04:33:57.628Z,1007.07
2022-09-15T04:34:28.150Z,1007.03
2022-09-15T04:34:59.076Z,1006.99
2022-09-15T04:35:30.072Z,1007.01
2022-09-15T04:36:00.990Z,1007.01
2022-09-15T04:36:32.123Z,1006.99
2022-09-15T04:37:02.630Z,1007.00
2022-09-15T04:37:33.590Z,1007.01
2022-09-15T04:38:04.549Z,1007.01
2022-09-15T04:38:35.497Z,1006.99
2022-09-15T04:39:06.425Z,1006.98
2022-09-15T04:39:37.524Z,1007.00
2022-09-15T04:40:08.113Z,1006.98
2022-09-15T04:40:38.562Z,1006.96
2022-09-15T04:41:09.495Z,1006.90
2022-09-15T04:41:40.491Z,1006.89
2022-09-15T04:42:11.498Z,1006.89
2022-09-15T04:42:42.162Z,1006.92
2022-09-15T04:43:12.696Z,1006.90
2022-09-15T04:43:43.608Z,1006.93
2022-09-15T04:44:14.602Z,1006.96
2022-09-15T04:44:45.122Z,1006.97
2022-09-15T04:45:15.596Z,1006.93
2022-09-15T04:45:46.733Z,1006.89
2022-09-15T04:46:17.280Z,1006.89
2022-09-15T04:46:47.800Z,1006.88
2022-09-15T04:47:18.236Z,1006.91
2022-09-15T04:47:49.144Z,1006.94
2022-09-15T04:48:20.001Z,1006.92
2022-09-15T04:48:51.141Z,1006.96
2022-09-15T04:49:21.588Z,1006.97
2022-09-15T04:49:52.454Z,1006.95
2022-09-15T04:50:23.325Z,1006.93
2022-09-15T04:50:54.161Z,1006.94
2022-09-15T04:51:25.020Z,1006.95
2022-09-15T04:51:56.068Z,1006.94
2022-09-15T04:52:26.504Z,1006.93
2022-09-15T04:52:57.447Z,1006.88
2022-09-15T04:53:28.314Z,1006.91
2022-09-15T04:53:59.155Z,1006.90
2022-09-15T04:54:30.102Z,1006.90
2022-09-15T04:55:01.249Z,1006.89
2022-09-15T04:55:31.683Z,1006.89
2022-09-15T04:56:02.623Z,1006.88
2022-09-15T04:56:33.560Z,1006.90
2022-09-15T04:57:04.396Z,1006.87
2022-09-15T04:57:35.252Z,1006.89
2022-09-15T04:58:06.370Z,1006.84
2022-09-15T04:58:36.746Z,1006.90
2022-09-15T04:59:07.695Z,1006.88
2022-09-15T04:59:38.635Z,1006.88
2022-09-15T05:00:09.580Z,1006.89
2022-09-15T05:00:40.580Z,1006.89
2022-09-15T05:01:11.517Z,1006.94
2022-09-15T05:01:41.529Z,1006.97
2022-09-15T05:02:12.519Z,1006.91
2022-09-15T05:02:42.920Z,1006.91
2022-09-15T05:03:13.848Z,1006.91
2022-09-15T05:03:44.780Z,1006.95
2022-09-15T05:04:15.922Z,1006.96
2022-09-15T05:04:46.364Z,1006.95
2022-09-15T05:05:17.230Z,1006.94
2022-09-15T05:05:48.164Z,1006.94
2022-09-15T05:06:19.105Z,1006.94
2022-09-15T05:06:49.966Z,1006.91
2022-09-15T05:07:21.021Z,1006.95
2022-09-15T05:07:51.440Z,1006.93
2022-09-15T05:08:22.352Z,1006.91
2022-09-15T05:08:53.516Z,1006.92
2022-09-15T05:09:24.117Z,1006.92
2022-09-15T05:09:54.969Z,1006.92
2022-09-15T05:10:26.033Z,1006.95
2022-09-15T05:10:56.483Z,1006.94
2022-09-15T05:11:27.395Z,1006.96
2022-09-15T05:11:58.335Z,1006.94
2022-09-15T05:12:29.288Z,1006.93
2022-09-15T05:13:00.161Z,1006.95
2022-09-15T05:13:31.305Z,1006.95
2022-09-15T05:14:01.682Z,1006.95
2022-09-15T05:14:32.625Z,1006.90
2022-09-15T05:15:03.500Z,1006.94
2022-09-15T05:15:34.438Z,1006.92
2022-09-15T05:16:05.365Z,1006.90
2022-09-15T05:16:36.586Z,1006.91
2022-09-15T05:17:07.075Z,1006.90
2022-09-15T05:17:38.017Z,1006.93
2022-09-15T05:18:08.957Z,1006.94
2022-09-15T05:18:39.870Z,1006.96
2022-09-15T05:19:10.813Z,1006.96
2022-09-15T05:19:41.965Z,1006.95
2022-09-15T05:20:12.416Z,1006.95
2022-09-15T05:20:43.374Z,1006.95
2022-09-15T05:21:14.313Z,1006.96
2022-09-15T05:21:45.189Z,1006.94
2022-09-15T05:22:16.105Z,1006.96
2022-09-15T05:22:47.170Z,1006.98
2022-09-15T05:23:17.616Z,1006.95
2022-09-15T05:23:48.526Z,1006.99
2022-09-15T05:24:19.511Z,1006.97
2022-09-15T05:24:50.442Z,1006.99
2022-09-15T05:25:21.373Z,1007.01
2022-09-15T05:25:52.495Z,1007.02
2022-09-15T05:26:22.939Z,1007.02
2022-09-15T05:26:53.804Z,1007.04
2022-09-15T05:27:24.780Z,1007.03
2022-09-15T05:27:55.648Z,1007.02
2022-09-15T05:28:26.515Z,1007.02
2022-09-15T05:28:57.668Z,1007.01
2022-09-15T05:29:28.158Z,1007.03
2022-09-15T05:30:17.749Z,1007.00
2022-09-15T05:30:42.501Z,1006.97
2022-09-15T05:31:00.958Z,1006.98
2022-09-15T05:31:32.101Z,1007.00
2022-09-15T05:32:02.874Z,1006.95
2022-09-15T05:32:33.904Z,1006.97
2022-09-15T05:33:04.477Z,1006.96
2022-09-15T05:33:34.956Z,1006.97
2022-09-15T05:34:05.858Z,1007.00
2022-09-15T05:34:37.013Z,1006.96
2022-09-15T05:35:07.440Z,1006.95
2022-09-15T05:35:38.423Z,1006.93
2022-09-15T05:36:09.309Z,1006.92
2022-09-15T05:36:40.282Z,1006.97
2022-09-15T05:37:11.261Z,1007.02
2022-09-15T05:37:42.341Z,1007.03
2022-09-15T05:38:12.839Z,1007.03
2022-09-15T05:38:43.915Z,1007.05
2022-09-15T05:39:14.472Z,1007.05
2022-09-15T05:39:45.426Z,1007.06
2022-09-15T05:40:16.357Z,1007.07
2022-09-15T05:40:47.553Z,1007.05
2022-09-15T05:41:18.022Z,1007.07
2022-09-15T05:41:48.907Z,1007.07
2022-09-15T05:42:19.894Z,1007.09
2022-09-15T05:42:50.869Z,1007.12
2022-09-15T05:43:21.846Z,1007.10
2022-09-15T05:43:53.115Z,1007.08
2022-09-15T05:44:23.665Z,1007.07
2022-09-15T05:44:54.631Z,1007.08
2022-09-15T05:45:25.594Z,1007.10
2022-09-15T05:45:56.468Z,1007.10
2022-09-15T05:46:27.522Z,1007.10
2022-09-15T05:46:58.421Z,1007.09
2022-09-15T05:47:28.738Z,1007.10
2022-09-15T05:47:59.697Z,1007.11
2022-09-15T05:48:30.617Z,1007.12
2022-09-15T05:49:01.532Z,1007.12
2022-09-15T05:49:32.465Z,1007.10
2022-09-15T05:50:03.538Z,1007.10
2022-09-15T05:50:33.990Z,1007.11
2022-09-15T05:51:04.937Z,1007.10
2022-09-15T05:51:35.868Z,1007.08
2022-09-15T05:52:06.802Z,1007.10
2022-09-15T05:52:37.757Z,1007.11
2022-09-15T05:53:08.834Z,1007.10
2022-09-15T05:53:39.306Z,1007.08
2022-09-15T05:54:10.245Z,1007.09
2022-09-15T05:54:41.115Z,1007.08
2022-09-15T05:55:11.987Z,1007.05
2022-09-15T05:55:42.864Z,1007.07
2022-09-15T05:56:13.920Z,1007.05
2022-09-15T05:56:44.350Z,1007.10
2022-09-15T05:57:15.264Z,1007.08
2022-09-15T05:57:46.215Z,1007.09
2022-09-15T05:58:17.091Z,1007.08
2022-09-15T05:58:48.029Z,1007.07
2022-09-15T05:59:19.150Z,1007.09
2022-09-15T05:59:49.555Z,1007.11
2022-09-15T06:00:20.429Z,1007.09
2022-09-15T06:00:51.394Z,1007.10
2022-09-15T06:01:22.320Z,1007.08
2022-09-15T06:01:53.325Z,1007.10
2022-09-15T06:02:24.020Z,1007.10
2022-09-15T06:02:54.528Z,1007.14
2022-09-15T06:03:30.070Z,1007.14
2022-09-15T06:03:56.325Z,1007.14
2022-09-15T06:04:27.335Z,1007.14
2022-09-15T06:04:58.392Z,1007.13
2022-09-15T06:05:28.858Z,1007.11
2022-09-15T06:05:59.800Z,1007.09
2022-09-15T06:06:30.740Z,1007.06
2022-09-15T06:07:01.693Z,1007.07
2022-09-15T06:07:32.645Z,1007.06
2022-09-15T06:08:03.713Z,1007.08
2022-09-15T06:08:34.200Z,1007.08
2022-09-15T06:09:05.421Z,1007.09
2022-09-15T06:09:35.923Z,1007.06
2022-09-15T06:10:06.881Z,1007.07
2022-09-15T06:10:37.826Z,1007.09
2022-09-15T06:11:08.926Z,1007.05
2022-09-15T06:11:39.368Z,1007.04
2022-09-15T06:12:10.315Z,1007.08
2022-09-15T06:12:41.257Z,1007.05
2022-09-15T06:13:12.202Z,1007.10